sensor_id;sensor_type;location;lat;lon;timestamp;temperature;humidity
80254;DHT22;69563;37.974;23.708;2023-05-01T00:00:05;22.10;52.20
80254;DHT22;69563;37.974;23.708;2023-05-01T00:02:31;22.10;52.30
80254;DHT22;69563;37.974;23.708;2023-05-01T00:04:56;22.10;52.40
80254;DHT22;69563;37.974;23.708;2023-05-01T00:07:22;22.10;52.20
80254;DHT22;69563;37.974;23.708;2023-05-01T00:09:50;22.10;52.30
80254;DHT22;69563;37.974;23.708;2023-05-01T00:12:16;22.10;52.30
80254;DHT22;69563;37.974;23.708;2023-05-01T00:14:42;22.10;52.20
80254;DHT22;69563;37.974;23.708;2023-05-01T00:17:08;22.20;52.20
80254;DHT22;69563;37.974;23.708;2023-05-01T00:19:34;22.10;52.30
80254;DHT22;69563;37.974;23.708;2023-05-01T00:21:59;22.10;52.40
80254;DHT22;69563;37.974;23.708;2023-05-01T00:24:25;22.10;52.40
80254;DHT22;69563;37.974;23.708;2023-05-01T00:26:51;22.10;52.40
80254;DHT22;69563;37.974;23.708;2023-05-01T00:29:17;22.10;52.20
80254;DHT22;69563;37.974;23.708;2023-05-01T00:31:43;22.00;52.00
80254;DHT22;69563;37.974;23.708;2023-05-01T00:34:10;22.00;51.90
80254;DHT22;69563;37.974;23.708;2023-05-01T00:36:36;22.00;51.80
80254;DHT22;69563;37.974;23.708;2023-05-01T00:39:02;22.00;51.80
80254;DHT22;69563;37.974;23.708;2023-05-01T00:41:28;22.00;51.70
80254;DHT22;69563;37.974;23.708;2023-05-01T00:43:54;22.00;51.70
80254;DHT22;69563;37.974;23.708;2023-05-01T00:46:19;22.00;51.50
80254;DHT22;69563;37.974;23.708;2023-05-01T00:48:46;22.00;51.30
80254;DHT22;69563;37.974;23.708;2023-05-01T00:51:12;22.00;51.10
80254;DHT22;69563;37.974;23.708;2023-05-01T00:53:39;22.00;51.00
80254;DHT22;69563;37.974;23.708;2023-05-01T00:56:06;22.10;50.80
80254;DHT22;69563;37.974;23.708;2023-05-01T00:58:33;22.00;50.90
80254;DHT22;69563;37.974;23.708;2023-05-01T01:00:59;22.00;50.70
80254;DHT22;69563;37.974;23.708;2023-05-01T01:03:26;21.90;50.60
80254;DHT22;69563;37.974;23.708;2023-05-01T01:06:24;21.90;50.50
80254;DHT22;69563;37.974;23.708;2023-05-01T01:14:26;21.90;50.30
80254;DHT22;69563;37.974;23.708;2023-05-01T01:17:19;21.90;50.30
80254;DHT22;69563;37.974;23.708;2023-05-01T01:23:03;21.90;50.00
80254;DHT22;69563;37.974;23.708;2023-05-01T01:31:19;21.90;49.90
80254;DHT22;69563;37.974;23.708;2023-05-01T01:34:25;21.90;49.80
80254;DHT22;69563;37.974;23.708;2023-05-01T01:37:19;21.90;49.70
80254;DHT22;69563;37.974;23.708;2023-05-01T01:42:19;21.90;49.60
80254;DHT22;69563;37.974;23.708;2023-05-01T01:44:55;21.90;49.60
80254;DHT22;69563;37.974;23.708;2023-05-01T01:47:28;22.00;49.50
80254;DHT22;69563;37.974;23.708;2023-05-01T01:49:58;21.90;49.40
80254;DHT22;69563;37.974;23.708;2023-05-01T01:52:27;21.90;49.40
80254;DHT22;69563;37.974;23.708;2023-05-01T01:54:57;21.90;49.30
80254;DHT22;69563;37.974;23.708;2023-05-01T01:57:24;21.90;49.40
80254;DHT22;69563;37.974;23.708;2023-05-01T01:59:52;21.90;49.30
80254;DHT22;69563;37.974;23.708;2023-05-01T02:02:20;21.90;49.20
80254;DHT22;69563;37.974;23.708;2023-05-01T02:04:50;21.90;49.30
80254;DHT22;69563;37.974;23.708;2023-05-01T02:07:18;21.90;49.10
80254;DHT22;69563;37.974;23.708;2023-05-01T02:09:45;22.00;49.10
80254;DHT22;69563;37.974;23.708;2023-05-01T02:12:12;22.00;49.10
80254;DHT22;69563;37.974;23.708;2023-05-01T02:14:40;21.90;49.10
80254;DHT22;69563;37.974;23.708;2023-05-01T02:17:08;22.00;49.10
80254;DHT22;69563;37.974;23.708;2023-05-01T02:19:36;22.00;49.10
80254;DHT22;69563;37.974;23.708;2023-05-01T02:22:04;22.00;49.00
80254;DHT22;69563;37.974;23.708;2023-05-01T02:24:32;22.00;49.00
80254;DHT22;69563;37.974;23.708;2023-05-01T02:27:15;22.00;49.00
80254;DHT22;69563;37.974;23.708;2023-05-01T02:29:41;22.00;49.00
80254;DHT22;69563;37.974;23.708;2023-05-01T02:32:07;22.00;49.00
80254;DHT22;69563;37.974;23.708;2023-05-01T02:34:34;22.00;49.00
80254;DHT22;69563;37.974;23.708;2023-05-01T02:37:00;21.90;49.00
80254;DHT22;69563;37.974;23.708;2023-05-01T02:39:26;21.90;49.10
80254;DHT22;69563;37.974;23.708;2023-05-01T02:41:53;21.90;49.00
80254;DHT22;69563;37.974;23.708;2023-05-01T02:44:23;21.90;49.00
80254;DHT22;69563;37.974;23.708;2023-05-01T02:46:51;21.90;49.10
80254;DHT22;69563;37.974;23.708;2023-05-01T02:49:18;21.90;49.10
80254;DHT22;69563;37.974;23.708;2023-05-01T02:51:45;21.80;49.00
80254;DHT22;69563;37.974;23.708;2023-05-01T02:54:13;21.80;49.00
80254;DHT22;69563;37.974;23.708;2023-05-01T02:56:39;21.80;49.00
80254;DHT22;69563;37.974;23.708;2023-05-01T02:59:04;21.80;49.00
80254;DHT22;69563;37.974;23.708;2023-05-01T03:01:30;21.90;49.00
80254;DHT22;69563;37.974;23.708;2023-05-01T03:03:56;21.90;49.00
80254;DHT22;69563;37.974;23.708;2023-05-01T03:06:22;21.90;48.90
80254;DHT22;69563;37.974;23.708;2023-05-01T03:08:48;21.90;48.90
80254;DHT22;69563;37.974;23.708;2023-05-01T03:11:13;21.80;49.00
80254;DHT22;69563;37.974;23.708;2023-05-01T03:13:40;21.80;49.00
80254;DHT22;69563;37.974;23.708;2023-05-01T03:16:05;21.80;49.00
80254;DHT22;69563;37.974;23.708;2023-05-01T03:18:32;21.80;49.00
80254;DHT22;69563;37.974;23.708;2023-05-01T03:20:57;21.80;49.00
80254;DHT22;69563;37.974;23.708;2023-05-01T03:23:23;21.80;49.00
80254;DHT22;69563;37.974;23.708;2023-05-01T03:25:50;21.90;48.90
80254;DHT22;69563;37.974;23.708;2023-05-01T03:28:16;21.90;48.90
80254;DHT22;69563;37.974;23.708;2023-05-01T03:30:44;21.90;48.90
80254;DHT22;69563;37.974;23.708;2023-05-01T03:33:09;21.80;49.00
80254;DHT22;69563;37.974;23.708;2023-05-01T03:35:35;21.80;49.00
80254;DHT22;69563;37.974;23.708;2023-05-01T03:38:01;21.80;49.00
80254;DHT22;69563;37.974;23.708;2023-05-01T03:40:26;21.80;49.00
80254;DHT22;69563;37.974;23.708;2023-05-01T03:42:52;21.80;49.00
80254;DHT22;69563;37.974;23.708;2023-05-01T03:45:18;21.80;49.00
80254;DHT22;69563;37.974;23.708;2023-05-01T03:47:43;21.90;49.00
80254;DHT22;69563;37.974;23.708;2023-05-01T03:50:09;21.90;49.00
80254;DHT22;69563;37.974;23.708;2023-05-01T03:52:35;21.80;49.00
80254;DHT22;69563;37.974;23.708;2023-05-01T03:55:01;21.80;49.00
80254;DHT22;69563;37.974;23.708;2023-05-01T03:57:27;21.80;49.00
80254;DHT22;69563;37.974;23.708;2023-05-01T03:59:53;21.80;48.90
80254;DHT22;69563;37.974;23.708;2023-05-01T04:02:19;21.80;49.00
80254;DHT22;69563;37.974;23.708;2023-05-01T04:04:44;21.80;49.00
80254;DHT22;69563;37.974;23.708;2023-05-01T04:07:11;21.80;49.00
80254;DHT22;69563;37.974;23.708;2023-05-01T04:09:37;21.90;49.10
80254;DHT22;69563;37.974;23.708;2023-05-01T04:12:03;21.90;49.10
80254;DHT22;69563;37.974;23.708;2023-05-01T04:14:29;21.80;49.00
80254;DHT22;69563;37.974;23.708;2023-05-01T04:16:55;21.90;49.10
80254;DHT22;69563;37.974;23.708;2023-05-01T04:19:22;21.90;49.10
80254;DHT22;69563;37.974;23.708;2023-05-01T04:21:47;21.90;49.10
80254;DHT22;69563;37.974;23.708;2023-05-01T04:24:13;21.90;49.10
80254;DHT22;69563;37.974;23.708;2023-05-01T04:26:41;22.00;49.10
80254;DHT22;69563;37.974;23.708;2023-05-01T04:29:07;21.90;49.10
80254;DHT22;69563;37.974;23.708;2023-05-01T04:31:33;21.90;49.00
80254;DHT22;69563;37.974;23.708;2023-05-01T04:33:59;22.00;49.10
80254;DHT22;69563;37.974;23.708;2023-05-01T04:36:25;22.00;48.90
80254;DHT22;69563;37.974;23.708;2023-05-01T04:38:51;21.90;49.00
80254;DHT22;69563;37.974;23.708;2023-05-01T04:41:16;22.00;49.00
80254;DHT22;69563;37.974;23.708;2023-05-01T04:43:43;22.00;49.00
80254;DHT22;69563;37.974;23.708;2023-05-01T04:46:08;22.00;49.10
80254;DHT22;69563;37.974;23.708;2023-05-01T04:48:34;22.00;49.10
80254;DHT22;69563;37.974;23.708;2023-05-01T04:51:00;22.00;49.10
80254;DHT22;69563;37.974;23.708;2023-05-01T04:53:28;21.90;49.10
80254;DHT22;69563;37.974;23.708;2023-05-01T04:55:54;21.90;49.10
80254;DHT22;69563;37.974;23.708;2023-05-01T04:58:19;22.00;49.10
80254;DHT22;69563;37.974;23.708;2023-05-01T05:00:45;22.00;49.10
80254;DHT22;69563;37.974;23.708;2023-05-01T05:03:11;22.00;49.10
80254;DHT22;69563;37.974;23.708;2023-05-01T05:05:37;22.00;49.10
80254;DHT22;69563;37.974;23.708;2023-05-01T05:08:02;22.00;49.10
80254;DHT22;69563;37.974;23.708;2023-05-01T05:10:28;22.00;49.20
80254;DHT22;69563;37.974;23.708;2023-05-01T05:12:54;22.00;49.20
80254;DHT22;69563;37.974;23.708;2023-05-01T05:15:20;22.00;49.30
80254;DHT22;69563;37.974;23.708;2023-05-01T05:17:46;22.00;49.30
80254;DHT22;69563;37.974;23.708;2023-05-01T05:20:11;22.00;49.50
80254;DHT22;69563;37.974;23.708;2023-05-01T05:22:37;22.00;49.50
80254;DHT22;69563;37.974;23.708;2023-05-01T05:25:03;22.00;49.80
80254;DHT22;69563;37.974;23.708;2023-05-01T05:27:31;21.90;50.00
80254;DHT22;69563;37.974;23.708;2023-05-01T05:30:03;21.90;50.30
80254;DHT22;69563;37.974;23.708;2023-05-01T05:32:29;21.80;50.60
80254;DHT22;69563;37.974;23.708;2023-05-01T05:34:55;21.90;50.80
80254;DHT22;69563;37.974;23.708;2023-05-01T05:37:21;21.90;50.70
80254;DHT22;69563;37.974;23.708;2023-05-01T05:39:48;22.00;50.90
80254;DHT22;69563;37.974;23.708;2023-05-01T05:42:14;22.00;50.90
80254;DHT22;69563;37.974;23.708;2023-05-01T05:44:40;21.90;51.10
80254;DHT22;69563;37.974;23.708;2023-05-01T05:47:05;21.80;51.50
80254;DHT22;69563;37.974;23.708;2023-05-01T05:49:31;21.80;51.50
80254;DHT22;69563;37.974;23.708;2023-05-01T05:51:57;21.80;51.70
80254;DHT22;69563;37.974;23.708;2023-05-01T05:54:23;21.80;51.80
80254;DHT22;69563;37.974;23.708;2023-05-01T05:56:49;21.90;51.80
80254;DHT22;69563;37.974;23.708;2023-05-01T05:59:14;21.90;52.00
80254;DHT22;69563;37.974;23.708;2023-05-01T06:01:40;21.90;51.80
80254;DHT22;69563;37.974;23.708;2023-05-01T06:04:07;21.90;52.30
80254;DHT22;69563;37.974;23.708;2023-05-01T06:06:33;22.00;52.50
80254;DHT22;69563;37.974;23.708;2023-05-01T06:08:59;21.90;52.90
80254;DHT22;69563;37.974;23.708;2023-05-01T06:11:25;21.90;53.00
80254;DHT22;69563;37.974;23.708;2023-05-01T06:13:52;21.90;53.00
80254;DHT22;69563;37.974;23.708;2023-05-01T06:16:18;21.90;52.90
80254;DHT22;69563;37.974;23.708;2023-05-01T06:18:44;21.90;53.10
80254;DHT22;69563;37.974;23.708;2023-05-01T06:21:09;21.90;53.30
80254;DHT22;69563;37.974;23.708;2023-05-01T06:23:35;21.90;53.40
80254;DHT22;69563;37.974;23.708;2023-05-01T06:26:01;21.90;53.40
80254;DHT22;69563;37.974;23.708;2023-05-01T06:28:27;21.90;53.50
80254;DHT22;69563;37.974;23.708;2023-05-01T06:30:52;21.80;53.60
80254;DHT22;69563;37.974;23.708;2023-05-01T06:33:18;21.90;53.70
80254;DHT22;69563;37.974;23.708;2023-05-01T06:35:44;21.90;53.70
80254;DHT22;69563;37.974;23.708;2023-05-01T06:38:10;21.80;53.90
80254;DHT22;69563;37.974;23.708;2023-05-01T06:40:35;21.80;53.90
80254;DHT22;69563;37.974;23.708;2023-05-01T06:43:02;21.80;54.10
80254;DHT22;69563;37.974;23.708;2023-05-01T06:45:28;21.80;54.00
80254;DHT22;69563;37.974;23.708;2023-05-01T06:47:53;21.90;53.90
80254;DHT22;69563;37.974;23.708;2023-05-01T06:50:19;21.90;53.70
80254;DHT22;69563;37.974;23.708;2023-05-01T06:52:45;22.00;53.60
80254;DHT22;69563;37.974;23.708;2023-05-01T06:55:11;21.90;53.90
80254;DHT22;69563;37.974;23.708;2023-05-01T06:57:37;22.00;53.70
80254;DHT22;69563;37.974;23.708;2023-05-01T07:00:05;22.00;53.50
80254;DHT22;69563;37.974;23.708;2023-05-01T07:02:31;22.00;53.70
80254;DHT22;69563;37.974;23.708;2023-05-01T07:04:56;22.20;53.40
80254;DHT22;69563;37.974;23.708;2023-05-01T07:07:22;22.10;53.20
80254;DHT22;69563;37.974;23.708;2023-05-01T07:09:48;22.30;53.30
80254;DHT22;69563;37.974;23.708;2023-05-01T07:12:14;22.30;53.10
80254;DHT22;69563;37.974;23.708;2023-05-01T07:14:40;22.30;53.00
80254;DHT22;69563;37.974;23.708;2023-05-01T07:17:06;22.30;53.00
80254;DHT22;69563;37.974;23.708;2023-05-01T07:19:33;22.30;53.00
80254;DHT22;69563;37.974;23.708;2023-05-01T07:21:59;22.20;53.10
80254;DHT22;69563;37.974;23.708;2023-05-01T07:24:25;22.30;53.10
80254;DHT22;69563;37.974;23.708;2023-05-01T07:26:51;22.30;53.00
80254;DHT22;69563;37.974;23.708;2023-05-01T07:29:16;22.30;52.90
80254;DHT22;69563;37.974;23.708;2023-05-01T07:31:43;22.40;52.90
80254;DHT22;69563;37.974;23.708;2023-05-01T07:34:09;22.40;52.80
80254;DHT22;69563;37.974;23.708;2023-05-01T07:36:35;22.40;52.70
80254;DHT22;69563;37.974;23.708;2023-05-01T07:39:02;22.30;52.80
80254;DHT22;69563;37.974;23.708;2023-05-01T07:41:29;22.30;52.80
80254;DHT22;69563;37.974;23.708;2023-05-01T07:43:57;22.40;52.60
80254;DHT22;69563;37.974;23.708;2023-05-01T07:46:24;22.40;52.70
80254;DHT22;69563;37.974;23.708;2023-05-01T07:48:49;22.40;52.50
80254;DHT22;69563;37.974;23.708;2023-05-01T07:51:16;22.50;52.30
80254;DHT22;69563;37.974;23.708;2023-05-01T07:53:42;22.50;52.30
80254;DHT22;69563;37.974;23.708;2023-05-01T07:56:09;22.50;52.20
80254;DHT22;69563;37.974;23.708;2023-05-01T07:58:35;22.60;52.00
80254;DHT22;69563;37.974;23.708;2023-05-01T08:01:02;22.50;51.90
80254;DHT22;69563;37.974;23.708;2023-05-01T08:03:31;22.50;52.10
80254;DHT22;69563;37.974;23.708;2023-05-01T08:05:57;22.50;52.20
80254;DHT22;69563;37.974;23.708;2023-05-01T08:08:23;22.60;52.30
80254;DHT22;69563;37.974;23.708;2023-05-01T08:10:50;22.60;52.20
80254;DHT22;69563;37.974;23.708;2023-05-01T08:13:16;22.60;52.50
80254;DHT22;69563;37.974;23.708;2023-05-01T08:15:42;22.60;52.50
80254;DHT22;69563;37.974;23.708;2023-05-01T08:18:08;22.60;52.80
80254;DHT22;69563;37.974;23.708;2023-05-01T08:20:36;22.60;52.60
80254;DHT22;69563;37.974;23.708;2023-05-01T08:23:02;22.60;52.80
80254;DHT22;69563;37.974;23.708;2023-05-01T08:25:28;22.60;52.70
80254;DHT22;69563;37.974;23.708;2023-05-01T08:27:56;22.70;52.80
80254;DHT22;69563;37.974;23.708;2023-05-01T08:30:22;22.70;52.90
80254;DHT22;69563;37.974;23.708;2023-05-01T08:32:47;22.70;53.00
80254;DHT22;69563;37.974;23.708;2023-05-01T08:35:13;22.70;53.00
80254;DHT22;69563;37.974;23.708;2023-05-01T08:37:39;22.70;53.10
80254;DHT22;69563;37.974;23.708;2023-05-01T08:40:05;22.70;53.10
80254;DHT22;69563;37.974;23.708;2023-05-01T08:42:37;22.70;53.30
80254;DHT22;69563;37.974;23.708;2023-05-01T08:45:06;22.80;53.20
80254;DHT22;69563;37.974;23.708;2023-05-01T08:47:35;22.80;53.20
80254;DHT22;69563;37.974;23.708;2023-05-01T08:50:03;22.80;53.20
80254;DHT22;69563;37.974;23.708;2023-05-01T08:52:29;22.80;53.40
80254;DHT22;69563;37.974;23.708;2023-05-01T08:54:56;22.70;53.60
80254;DHT22;69563;37.974;23.708;2023-05-01T08:57:25;22.70;53.80
80254;DHT22;69563;37.974;23.708;2023-05-01T08:59:52;22.80;54.40
80254;DHT22;69563;37.974;23.708;2023-05-01T09:02:22;22.80;54.00
80254;DHT22;69563;37.974;23.708;2023-05-01T09:04:50;22.80;54.30
80254;DHT22;69563;37.974;23.708;2023-05-01T09:07:15;22.80;54.40
80254;DHT22;69563;37.974;23.708;2023-05-01T09:09:42;22.80;54.60
80254;DHT22;69563;37.974;23.708;2023-05-01T09:12:22;22.80;54.60
80254;DHT22;69563;37.974;23.708;2023-05-01T09:14:50;22.80;54.50
80254;DHT22;69563;37.974;23.708;2023-05-01T09:17:16;22.70;55.00
80254;DHT22;69563;37.974;23.708;2023-05-01T09:19:43;22.80;54.90
80254;DHT22;69563;37.974;23.708;2023-05-01T09:22:08;22.80;54.80
80254;DHT22;69563;37.974;23.708;2023-05-01T09:24:34;22.90;54.60
80254;DHT22;69563;37.974;23.708;2023-05-01T09:27:00;22.90;54.60
80254;DHT22;69563;37.974;23.708;2023-05-01T09:29:52;22.90;54.40
80254;DHT22;69563;37.974;23.708;2023-05-01T09:32:23;22.90;54.30
80254;DHT22;69563;37.974;23.708;2023-05-01T09:34:53;22.90;54.30
80254;DHT22;69563;37.974;23.708;2023-05-01T09:40:20;22.90;54.20
80254;DHT22;69563;37.974;23.708;2023-05-01T09:42:52;22.80;54.50
80254;DHT22;69563;37.974;23.708;2023-05-01T09:45:19;22.80;54.50
80254;DHT22;69563;37.974;23.708;2023-05-01T09:47:45;22.80;54.20
80254;DHT22;69563;37.974;23.708;2023-05-01T09:50:28;22.80;54.40
80254;DHT22;69563;37.974;23.708;2023-05-01T09:52:54;22.80;54.40
80254;DHT22;69563;37.974;23.708;2023-05-01T09:55:20;22.80;54.30
80254;DHT22;69563;37.974;23.708;2023-05-01T09:57:46;22.80;54.30
80254;DHT22;69563;37.974;23.708;2023-05-01T10:00:13;22.90;54.00
80254;DHT22;69563;37.974;23.708;2023-05-01T10:02:45;22.90;55.20
80254;DHT22;69563;37.974;23.708;2023-05-01T10:05:12;22.90;54.10
80254;DHT22;69563;37.974;23.708;2023-05-01T10:07:39;22.90;54.00
80254;DHT22;69563;37.974;23.708;2023-05-01T10:10:18;22.90;54.00
80254;DHT22;69563;37.974;23.708;2023-05-01T10:12:44;23.00;53.70
80254;DHT22;69563;37.974;23.708;2023-05-01T10:15:11;23.10;53.70
80254;DHT22;69563;37.974;23.708;2023-05-01T10:17:38;23.00;53.50
80254;DHT22;69563;37.974;23.708;2023-05-01T10:20:06;23.00;53.50
80254;DHT22;69563;37.974;23.708;2023-05-01T10:22:32;23.00;53.30
80254;DHT22;69563;37.974;23.708;2023-05-01T10:24:59;23.00;53.20
80254;DHT22;69563;37.974;23.708;2023-05-01T10:27:25;23.00;53.10
80254;DHT22;69563;37.974;23.708;2023-05-01T10:29:52;23.00;53.00
80254;DHT22;69563;37.974;23.708;2023-05-01T10:32:19;23.00;53.00
80254;DHT22;69563;37.974;23.708;2023-05-01T10:34:50;23.00;52.90
80254;DHT22;69563;37.974;23.708;2023-05-01T10:37:57;23.00;52.90
80254;DHT22;69563;37.974;23.708;2023-05-01T10:43:17;22.90;52.90
80254;DHT22;69563;37.974;23.708;2023-05-01T10:45:43;22.90;53.00
80254;DHT22;69563;37.974;23.708;2023-05-01T10:48:10;22.90;53.10
80254;DHT22;69563;37.974;23.708;2023-05-01T10:51:08;22.80;53.30
80254;DHT22;69563;37.974;23.708;2023-05-01T10:53:39;22.80;53.30
80254;DHT22;69563;37.974;23.708;2023-05-01T10:56:38;22.80;53.30
80254;DHT22;69563;37.974;23.708;2023-05-01T10:59:03;22.70;53.40
80254;DHT22;69563;37.974;23.708;2023-05-01T11:09:52;22.80;52.90
80254;DHT22;69563;37.974;23.708;2023-05-01T11:15:31;22.80;52.40
80254;DHT22;69563;37.974;23.708;2023-05-01T11:18:01;22.80;52.40
80254;DHT22;69563;37.974;23.708;2023-05-01T11:22:57;22.70;52.60
80254;DHT22;69563;37.974;23.708;2023-05-01T11:25:24;22.70;52.90
80254;DHT22;69563;37.974;23.708;2023-05-01T11:27:56;22.70;53.10
80254;DHT22;69563;37.974;23.708;2023-05-01T11:30:22;22.70;53.20
80254;DHT22;69563;37.974;23.708;2023-05-01T11:32:49;22.80;53.00
80254;DHT22;69563;37.974;23.708;2023-05-01T11:35:24;22.70;53.00
80254;DHT22;69563;37.974;23.708;2023-05-01T11:37:53;22.70;52.90
80254;DHT22;69563;37.974;23.708;2023-05-01T11:40:26;22.70;53.10
80254;DHT22;69563;37.974;23.708;2023-05-01T11:43:07;22.60;53.00
80254;DHT22;69563;37.974;23.708;2023-05-01T11:45:34;22.70;52.80
80254;DHT22;69563;37.974;23.708;2023-05-01T11:48:00;22.60;53.00
80254;DHT22;69563;37.974;23.708;2023-05-01T11:50:36;22.70;52.80
80254;DHT22;69563;37.974;23.708;2023-05-01T11:53:04;22.70;52.70
80254;DHT22;69563;37.974;23.708;2023-05-01T11:55:36;22.60;52.90
80254;DHT22;69563;37.974;23.708;2023-05-01T11:58:03;22.70;53.10
80254;DHT22;69563;37.974;23.708;2023-05-01T12:00:37;22.70;52.80
80254;DHT22;69563;37.974;23.708;2023-05-01T12:05:34;22.70;52.70
80254;DHT22;69563;37.974;23.708;2023-05-01T12:10:37;22.70;52.40
80254;DHT22;69563;37.974;23.708;2023-05-01T12:13:05;22.70;52.00
80254;DHT22;69563;37.974;23.708;2023-05-01T12:15:33;22.80;51.20
80254;DHT22;69563;37.974;23.708;2023-05-01T12:18:01;22.80;51.10
80254;DHT22;69563;37.974;23.708;2023-05-01T12:20:41;22.80;50.70
80254;DHT22;69563;37.974;23.708;2023-05-01T12:23:09;22.90;50.40
80254;DHT22;69563;37.974;23.708;2023-05-01T12:25:37;22.80;50.30
80254;DHT22;69563;37.974;23.708;2023-05-01T12:28:11;22.80;50.30
80254;DHT22;69563;37.974;23.708;2023-05-01T12:30:38;22.90;50.00
80254;DHT22;69563;37.974;23.708;2023-05-01T12:33:33;22.90;49.60
80254;DHT22;69563;37.974;23.708;2023-05-01T12:36:09;22.90;48.90
80254;DHT22;69563;37.974;23.708;2023-05-01T12:38:36;23.00;48.60
80254;DHT22;69563;37.974;23.708;2023-05-01T12:41:02;23.00;48.40
80254;DHT22;69563;37.974;23.708;2023-05-01T12:43:33;22.90;48.20
80254;DHT22;69563;37.974;23.708;2023-05-01T12:46:00;22.90;48.10
80254;DHT22;69563;37.974;23.708;2023-05-01T12:48:26;22.90;47.80
80254;DHT22;69563;37.974;23.708;2023-05-01T12:50:52;22.80;47.60
80254;DHT22;69563;37.974;23.708;2023-05-01T12:53:26;22.80;47.40
80254;DHT22;69563;37.974;23.708;2023-05-01T12:55:53;22.80;47.00
80254;DHT22;69563;37.974;23.708;2023-05-01T12:58:19;22.80;46.80
80254;DHT22;69563;37.974;23.708;2023-05-01T13:00:54;22.80;46.50
80254;DHT22;69563;37.974;23.708;2023-05-01T13:03:25;22.80;46.40
80254;DHT22;69563;37.974;23.708;2023-05-01T13:05:58;22.80;46.50
80254;DHT22;69563;37.974;23.708;2023-05-01T13:08:36;22.80;46.00
80254;DHT22;69563;37.974;23.708;2023-05-01T13:11:15;22.80;45.80
80254;DHT22;69563;37.974;23.708;2023-05-01T13:13:43;22.90;45.30
80254;DHT22;69563;37.974;23.708;2023-05-01T13:16:11;22.90;44.90
80254;DHT22;69563;37.974;23.708;2023-05-01T13:18:45;22.90;45.10
80254;DHT22;69563;37.974;23.708;2023-05-01T13:21:13;22.80;45.70
80254;DHT22;69563;37.974;23.708;2023-05-01T13:23:40;22.80;44.90
80254;DHT22;69563;37.974;23.708;2023-05-01T13:26:08;22.80;44.90
80254;DHT22;69563;37.974;23.708;2023-05-01T13:28:35;22.80;44.70
80254;DHT22;69563;37.974;23.708;2023-05-01T13:31:13;22.90;44.60
80254;DHT22;69563;37.974;23.708;2023-05-01T13:33:40;22.90;44.40
80254;DHT22;69563;37.974;23.708;2023-05-01T13:36:11;22.90;44.30
80254;DHT22;69563;37.974;23.708;2023-05-01T13:38:51;23.00;44.40
80254;DHT22;69563;37.974;23.708;2023-05-01T13:41:21;22.90;44.20
80254;DHT22;69563;37.974;23.708;2023-05-01T13:43:48;22.90;44.20
80254;DHT22;69563;37.974;23.708;2023-05-01T13:46:16;22.90;44.20
80254;DHT22;69563;37.974;23.708;2023-05-01T13:48:43;22.90;44.20
80254;DHT22;69563;37.974;23.708;2023-05-01T13:51:10;22.90;44.20
80254;DHT22;69563;37.974;23.708;2023-05-01T13:53:41;22.90;44.10
80254;DHT22;69563;37.974;23.708;2023-05-01T13:56:10;22.90;44.00
80254;DHT22;69563;37.974;23.708;2023-05-01T13:58:38;22.90;44.00
80254;DHT22;69563;37.974;23.708;2023-05-01T14:01:16;22.90;44.00
80254;DHT22;69563;37.974;23.708;2023-05-01T14:03:43;22.90;44.00
80254;DHT22;69563;37.974;23.708;2023-05-01T14:06:19;22.90;44.20
80254;DHT22;69563;37.974;23.708;2023-05-01T14:08:46;22.90;44.00
80254;DHT22;69563;37.974;23.708;2023-05-01T14:11:13;22.90;44.10
80254;DHT22;69563;37.974;23.708;2023-05-01T14:13:41;22.90;44.20
80254;DHT22;69563;37.974;23.708;2023-05-01T14:16:08;22.90;44.30
80254;DHT22;69563;37.974;23.708;2023-05-01T14:18:42;22.90;44.50
80254;DHT22;69563;37.974;23.708;2023-05-01T14:21:07;22.80;44.60
80254;DHT22;69563;37.974;23.708;2023-05-01T14:23:34;22.80;44.90
80254;DHT22;69563;37.974;23.708;2023-05-01T14:26:00;22.90;44.90
80254;DHT22;69563;37.974;23.708;2023-05-01T14:28:25;22.90;45.00
80254;DHT22;69563;37.974;23.708;2023-05-01T14:30:51;22.90;45.30
80254;DHT22;69563;37.974;23.708;2023-05-01T14:33:19;22.90;45.40
80254;DHT22;69563;37.974;23.708;2023-05-01T14:35:49;22.90;45.50
80254;DHT22;69563;37.974;23.708;2023-05-01T14:38:16;22.90;45.80
80254;DHT22;69563;37.974;23.708;2023-05-01T14:40:42;22.80;45.90
80254;DHT22;69563;37.974;23.708;2023-05-01T14:43:11;22.80;46.10
80254;DHT22;69563;37.974;23.708;2023-05-01T14:45:40;22.80;46.30
80254;DHT22;69563;37.974;23.708;2023-05-01T14:48:07;22.80;46.50
80254;DHT22;69563;37.974;23.708;2023-05-01T14:50:33;22.80;46.60
80254;DHT22;69563;37.974;23.708;2023-05-01T14:52:59;22.80;46.80
80254;DHT22;69563;37.974;23.708;2023-05-01T14:55:30;22.70;46.90
80254;DHT22;69563;37.974;23.708;2023-05-01T14:57:59;22.80;46.90
80254;DHT22;69563;37.974;23.708;2023-05-01T15:00:26;22.80;46.70
80254;DHT22;69563;37.974;23.708;2023-05-01T15:02:52;22.80;46.80
80254;DHT22;69563;37.974;23.708;2023-05-01T15:05:19;22.80;46.90
80254;DHT22;69563;37.974;23.708;2023-05-01T15:07:45;22.80;46.90
80254;DHT22;69563;37.974;23.708;2023-05-01T15:10:11;22.80;46.90
80254;DHT22;69563;37.974;23.708;2023-05-01T15:12:37;22.80;47.00
80254;DHT22;69563;37.974;23.708;2023-05-01T15:15:04;22.80;47.10
80254;DHT22;69563;37.974;23.708;2023-05-01T15:17:29;22.80;47.30
80254;DHT22;69563;37.974;23.708;2023-05-01T15:19:55;22.80;47.40
80254;DHT22;69563;37.974;23.708;2023-05-01T15:22:21;22.70;47.30
80254;DHT22;69563;37.974;23.708;2023-05-01T15:24:46;22.80;47.30
80254;DHT22;69563;37.974;23.708;2023-05-01T15:27:12;22.80;47.20
80254;DHT22;69563;37.974;23.708;2023-05-01T15:29:38;22.80;47.10
80254;DHT22;69563;37.974;23.708;2023-05-01T15:32:04;22.70;47.10
80254;DHT22;69563;37.974;23.708;2023-05-01T15:34:31;22.80;46.90
80254;DHT22;69563;37.974;23.708;2023-05-01T15:36:57;22.70;46.90
80254;DHT22;69563;37.974;23.708;2023-05-01T15:39:22;22.80;46.80
80254;DHT22;69563;37.974;23.708;2023-05-01T15:41:48;22.80;46.70
80254;DHT22;69563;37.974;23.708;2023-05-01T15:44:14;22.80;46.60
80254;DHT22;69563;37.974;23.708;2023-05-01T15:46:40;22.80;46.50
80254;DHT22;69563;37.974;23.708;2023-05-01T15:49:07;22.80;46.50
80254;DHT22;69563;37.974;23.708;2023-05-01T15:51:33;22.80;46.40
80254;DHT22;69563;37.974;23.708;2023-05-01T15:53:59;22.80;46.30
80254;DHT22;69563;37.974;23.708;2023-05-01T15:56:26;22.80;46.30
80254;DHT22;69563;37.974;23.708;2023-05-01T15:58:52;22.70;46.30
80254;DHT22;69563;37.974;23.708;2023-05-01T16:01:18;22.70;46.30